createdAt,value
2023-03-15T00:01:33.747Z,6.43
2023-03-15T00:04:17.633Z,5.80
2023-03-15T00:07:03.365Z,7.70
2023-03-15T00:09:47.120Z,6.73
2023-03-15T00:12:30.964Z,4.47
2023-03-15T00:15:15.796Z,5.10
2023-03-15T00:17:59.666Z,5.13
2023-03-15T00:20:43.965Z,4.33
2023-03-15T00:23:29.136Z,5.33
2023-03-15T00:26:13.285Z,4.97
2023-03-15T00:28:56.976Z,5.63
2023-03-15T00:31:40.684Z,6.73
2023-03-15T00:34:26.676Z,5.63
2023-03-15T00:37:11.549Z,4.53
2023-03-15T00:39:56.769Z,4.70
2023-03-15T00:42:40.701Z,4.30
2023-03-15T00:45:24.733Z,4.03
2023-03-15T00:48:08.682Z,6.80
2023-03-15T00:50:52.427Z,4.23
2023-03-15T00:53:38.008Z,6.07
2023-03-15T00:56:25.240Z,4.07
2023-03-15T00:59:09.043Z,3.13
2023-03-15T01:01:52.994Z,4.60
2023-03-15T01:04:39.292Z,5.17
2023-03-15T01:07:23.026Z,6.83
2023-03-15T01:10:09.109Z,4.57
2023-03-15T01:12:54.257Z,5.33
2023-03-15T01:15:38.028Z,5.47
2023-03-15T01:18:21.877Z,4.10
2023-03-15T01:21:08.246Z,5.67
2023-03-15T01:23:52.346Z,6.77
2023-03-15T01:26:38.868Z,5.27
2023-03-15T01:29:24.263Z,5.20
2023-03-15T01:32:08.495Z,6.90
2023-03-15T01:34:52.617Z,6.10
2023-03-15T01:37:36.489Z,5.37
2023-03-15T01:40:21.116Z,5.07
2023-03-15T01:43:19.224Z,4.50
2023-03-15T01:46:27.978Z,3.63
2023-03-15T01:49:24.026Z,6.67
2023-03-15T01:52:13.069Z,3.93
2023-03-15T01:55:08.858Z,6.97
2023-03-15T01:57:58.689Z,7.03
2023-03-15T02:00:44.921Z,4.67
2023-03-15T02:03:38.285Z,5.17
2023-03-15T02:06:23.418Z,3.53
2023-03-15T02:09:15.165Z,6.43
2023-03-15T02:12:00.288Z,10.37
2023-03-15T02:14:44.799Z,13.37
2023-03-15T02:17:38.148Z,9.23
2023-03-15T02:20:34.841Z,7.97
2023-03-15T02:23:20.190Z,7.63
2023-03-15T02:26:15.051Z,5.60
2023-03-15T02:29:00.506Z,5.27
2023-03-15T02:31:45.044Z,7.53
2023-03-15T02:34:28.805Z,5.17
2023-03-15T02:37:12.556Z,7.27
2023-03-15T02:39:56.654Z,6.67
2023-03-15T02:42:42.628Z,6.80
2023-03-15T02:45:29.030Z,7.80
2023-03-15T02:48:13.804Z,9.13
2023-03-15T02:50:57.707Z,10.97
2023-03-15T02:53:41.401Z,5.13
2023-03-15T02:56:25.322Z,6.57
2023-03-15T02:59:09.452Z,8.60
2023-03-15T03:01:55.827Z,6.47
2023-03-15T03:04:39.750Z,10.63
2023-03-15T03:07:23.615Z,11.97
2023-03-15T03:10:17.847Z,6.53
2023-03-15T03:13:12.333Z,9.07
2023-03-15T03:15:59.692Z,5.57
2023-03-15T03:18:48.079Z,5.27
2023-03-15T03:21:32.476Z,8.40
2023-03-15T03:24:16.653Z,8.57
2023-03-15T03:27:00.409Z,6.70
2023-03-15T03:29:47.403Z,5.33
2023-03-15T03:32:33.105Z,8.07
2023-03-15T03:35:18.476Z,8.57
2023-03-15T03:38:02.314Z,6.97
2023-03-15T03:40:51.751Z,6.57
2023-03-15T03:43:35.747Z,7.93
2023-03-15T03:46:19.893Z,5.13
2023-03-15T03:49:08.572Z,8.57
2023-03-15T03:51:53.650Z,8.30
2023-03-15T03:54:37.513Z,5.67
2023-03-15T03:57:21.706Z,7.17
2023-03-15T04:00:06.866Z,5.50
2023-03-15T04:02:58.812Z,5.00
2023-03-15T04:05:43.057Z,8.90
2023-03-15T04:08:34.342Z,5.00
2023-03-15T04:11:18.721Z,9.10
2023-03-15T04:14:10.297Z,8.27
2023-03-15T04:16:55.620Z,6.30
2023-03-15T04:19:40.219Z,3.83
2023-03-15T04:22:25.797Z,6.93
2023-03-15T04:25:31.216Z,7.00
2023-03-15T04:28:39.083Z,4.97
2023-03-15T04:31:43.364Z,5.03
2023-03-15T04:34:51.508Z,6.47
2023-03-15T04:37:59.103Z,6.73
2023-03-15T04:41:10.953Z,3.40
2023-03-15T04:44:16.473Z,4.00
2023-03-15T04:47:22.842Z,8.50
2023-03-15T04:50:40.096Z,4.63
2023-03-15T04:53:43.576Z,7.87
2023-03-15T04:56:47.200Z,7.77
2023-03-15T04:59:51.240Z,5.40
2023-03-15T05:02:52.287Z,6.70
2023-03-15T05:06:00.139Z,5.67
2023-03-15T05:09:04.583Z,7.50
2023-03-15T05:11:49.833Z,5.80
2023-03-15T05:15:12.903Z,7.37
2023-03-15T05:18:19.222Z,10.97
2023-03-15T05:21:25.791Z,5.87
2023-03-15T05:24:32.721Z,5.87
2023-03-15T05:27:39.973Z,5.20
2023-03-15T05:30:32.143Z,6.17
2023-03-15T05:33:26.384Z,4.90
2023-03-15T05:36:29.477Z,5.63
2023-03-15T05:39:34.801Z,8.77
2023-03-15T05:42:25.458Z,3.80
2023-03-15T05:45:36.798Z,7.00
2023-03-15T05:48:39.187Z,5.30
2023-03-15T05:51:45.764Z,8.57
2023-03-15T05:54:36.400Z,10.50
2023-03-15T05:57:58.760Z,3.97
2023-03-15T06:00:55.782Z,6.50
2023-03-15T06:03:59.588Z,8.07
2023-03-15T06:06:47.452Z,9.00
2023-03-15T06:09:31.761Z,6.87
2023-03-15T06:12:15.938Z,7.47
2023-03-15T06:15:00.485Z,5.47
2023-03-15T06:17:49.056Z,7.63
2023-03-15T06:20:33.428Z,10.20
2023-03-15T06:23:23.932Z,7.23
2023-03-15T06:26:07.847Z,9.37
2023-03-15T06:28:52.044Z,7.87
2023-03-15T06:31:36.831Z,3.50
2023-03-15T06:34:25.762Z,4.57
2023-03-15T06:37:16.360Z,6.53
2023-03-15T06:40:02.079Z,8.40
2023-03-15T06:42:46.745Z,6.80
2023-03-15T06:45:37.159Z,9.33
2023-03-15T06:48:22.255Z,9.67
2023-03-15T06:51:07.581Z,9.87
2023-03-15T06:53:51.581Z,6.33
2023-03-15T06:56:37.512Z,6.73
2023-03-15T06:59:21.398Z,6.43
2023-03-15T07:02:05.778Z,6.63
2023-03-15T07:04:49.727Z,8.70
2023-03-15T07:07:35.068Z,8.67
2023-03-15T07:10:19.139Z,19.17
2023-03-15T07:13:02.948Z,10.77
2023-03-15T07:15:47.868Z,9.93
2023-03-15T07:18:34.465Z,23.90
2023-03-15T07:21:18.644Z,10.33
2023-03-15T07:24:04.503Z,10.73
2023-03-15T07:26:48.847Z,7.73
2023-03-15T07:29:33.925Z,7.47
2023-03-15T07:32:18.536Z,7.93
2023-03-15T07:35:02.546Z,8.50
2023-03-15T07:37:47.417Z,12.73
2023-03-15T07:40:33.001Z,6.77
2023-03-15T07:43:17.675Z,11.60
2023-03-15T07:46:07.130Z,9.10
2023-03-15T07:48:51.164Z,7.53
2023-03-15T07:51:35.196Z,14.20
2023-03-15T07:54:19.593Z,9.23
2023-03-15T07:57:05.667Z,9.37
2023-03-15T07:59:49.467Z,30.10
2023-03-15T08:02:33.312Z,25.70
2023-03-15T08:05:19.075Z,18.03
2023-03-15T08:08:03.248Z,22.00
2023-03-15T08:10:47.349Z,5.73
2023-03-15T08:13:32.826Z,7.50
2023-03-15T08:16:16.666Z,15.87
2023-03-15T08:19:00.881Z,14.67
2023-03-15T08:21:45.463Z,13.87
2023-03-15T08:24:29.945Z,7.97
2023-03-15T08:27:13.768Z,10.57
2023-03-15T08:29:59.105Z,12.13
2023-03-15T08:32:43.849Z,22.90
2023-03-15T08:35:27.731Z,19.93
2023-03-15T08:38:12.518Z,14.10
2023-03-15T08:41:00.064Z,10.93
2023-03-15T08:43:43.869Z,14.00
2023-03-15T08:46:29.382Z,11.70
2023-03-15T08:49:13.442Z,12.43
2023-03-15T08:51:57.415Z,15.73
2023-03-15T08:54:41.488Z,5.97
2023-03-15T08:57:27.360Z,12.47
2023-03-15T09:00:17.407Z,12.53
2023-03-15T09:03:02.563Z,9.80
2023-03-15T09:05:46.777Z,8.60
2023-03-15T09:08:33.423Z,10.23
2023-03-15T09:11:17.487Z,7.00
2023-03-15T09:14:01.524Z,12.17
2023-03-15T09:16:45.435Z,16.40
2023-03-15T09:19:32.454Z,7.27
2023-03-15T09:22:23.861Z,10.67
2023-03-15T09:25:19.432Z,12.30
2023-03-15T09:28:03.452Z,10.53
2023-03-15T09:30:47.364Z,14.87
2023-03-15T09:33:33.219Z,22.67
2023-03-15T09:36:18.453Z,13.03
2023-03-15T09:39:02.818Z,10.43
2023-03-15T09:41:49.796Z,11.00
2023-03-15T09:44:46.067Z,9.50
2023-03-15T09:47:38.597Z,10.10
2023-03-15T09:50:28.254Z,9.07
2023-03-15T09:53:18.565Z,15.53
2023-03-15T09:56:02.305Z,18.27
2023-03-15T09:58:46.770Z,11.00
2023-03-15T10:01:33.685Z,15.80
2023-03-15T10:04:28.787Z,17.00
2023-03-15T10:07:16.682Z,15.63
2023-03-15T10:10:04.997Z,12.47
2023-03-15T10:13:00.103Z,14.73
2023-03-15T10:15:54.035Z,17.20
2023-03-15T10:18:54.286Z,18.43
2023-03-15T10:21:51.240Z,17.43
2023-03-15T10:24:39.936Z,16.37
2023-03-15T10:27:33.378Z,19.57
2023-03-15T10:30:20.703Z,13.20
2023-03-15T10:33:12.193Z,19.20
2023-03-15T10:36:09.776Z,15.83
2023-03-15T10:38:54.434Z,16.43
2023-03-15T10:41:41.977Z,18.83
2023-03-15T10:44:28.474Z,15.90
2023-03-15T10:47:23.646Z,14.70
2023-03-15T10:50:08.859Z,14.77
2023-03-15T10:52:56.749Z,15.50
2023-03-15T10:55:45.532Z,17.53
2023-03-15T10:58:34.709Z,12.47
2023-03-15T11:01:27.975Z,15.00
2023-03-15T11:04:17.292Z,20.30
2023-03-15T11:07:03.439Z,15.40
2023-03-15T11:09:54.616Z,16.30
2023-03-15T11:12:38.530Z,19.17
2023-03-15T11:15:22.268Z,22.70
2023-03-15T11:18:09.460Z,28.90
2023-03-15T11:20:54.924Z,47.70
2023-03-15T11:23:41.530Z,26.30
2023-03-15T11:26:32.491Z,15.67
2023-03-15T11:29:22.880Z,18.13
2023-03-15T11:32:15.367Z,14.27
2023-03-15T11:35:05.415Z,16.83
2023-03-15T11:37:56.721Z,12.23
2023-03-15T11:40:45.227Z,16.77
2023-03-15T11:43:34.171Z,16.30
2023-03-15T11:46:25.966Z,15.70
2023-03-15T11:49:17.163Z,16.73
2023-03-15T11:52:02.280Z,15.30
2023-03-15T11:54:47.364Z,16.23
2023-03-15T11:57:45.814Z,9.97
2023-03-15T12:00:51.620Z,16.23
2023-03-15T12:03:41.187Z,12.50
2023-03-15T12:06:40.582Z,11.70
2023-03-15T12:09:52.728Z,17.97
2023-03-15T12:12:38.170Z,26.80
2023-03-15T12:15:47.900Z,16.97
2023-03-15T12:18:34.852Z,21.43
2023-03-15T12:21:23.300Z,20.80
2023-03-15T12:24:09.354Z,12.17
2023-03-15T12:27:02.674Z,17.20
2023-03-15T12:29:48.395Z,15.57
2023-03-15T12:32:32.477Z,23.37
2023-03-15T12:35:21.192Z,17.17
2023-03-15T12:38:05.184Z,24.70
2023-03-15T12:40:53.918Z,23.37
2023-03-15T12:43:41.249Z,27.73
2023-03-15T12:47:00.008Z,14.57
2023-03-15T12:49:44.953Z,18.30
2023-03-15T12:52:44.265Z,14.47
2023-03-15T12:55:33.001Z,13.10
2023-03-15T12:58:20.044Z,19.53
2023-03-15T13:01:07.622Z,15.17
2023-03-15T13:03:56.666Z,17.67
2023-03-15T13:06:52.133Z,21.93
2023-03-15T13:09:51.134Z,16.57
2023-03-15T13:12:41.784Z,19.40
2023-03-15T13:15:29.996Z,29.23
2023-03-15T13:18:19.803Z,20.27
2023-03-15T13:21:15.756Z,14.07
2023-03-15T13:24:00.907Z,18.63
2023-03-15T13:26:55.156Z,16.83
2023-03-15T13:29:39.125Z,21.40
2023-03-15T13:32:24.773Z,29.47
2023-03-15T13:35:14.201Z,20.97
2023-03-15T13:38:07.552Z,27.30
2023-03-15T13:40:51.386Z,20.57
2023-03-15T13:43:37.054Z,33.27
2023-03-15T13:46:24.065Z,16.70
2023-03-15T13:49:08.202Z,16.87
2023-03-15T13:51:54.445Z,20.23
2023-03-15T13:54:38.968Z,16.60
2023-03-15T13:57:24.690Z,18.33
2023-03-15T14:00:12.529Z,13.33
2023-03-15T14:02:59.889Z,16.97
2023-03-15T14:05:47.519Z,15.13
2023-03-15T14:08:36.124Z,19.53
2023-03-15T14:11:32.604Z,12.93
2023-03-15T14:14:23.776Z,16.70
2023-03-15T14:17:18.555Z,20.57
2023-03-15T14:20:09.271Z,20.10
2023-03-15T14:22:53.242Z,32.30
2023-03-15T14:25:38.798Z,18.57
2023-03-15T14:28:24.586Z,25.50
2023-03-15T14:31:08.903Z,21.47
2023-03-15T14:33:55.619Z,33.23
2023-03-15T14:36:43.501Z,63.87
2023-03-15T14:39:31.321Z,25.63
2023-03-15T14:42:16.599Z,21.97
2023-03-15T14:45:00.541Z,21.70
2023-03-15T14:47:56.640Z,18.07
2023-03-15T14:50:43.253Z,17.23
2023-03-15T14:53:32.335Z,19.50
2023-03-15T14:56:18.646Z,19.40
2023-03-15T14:59:12.291Z,19.57
2023-03-15T15:02:00.446Z,14.53
2023-03-15T15:04:44.635Z,16.37
2023-03-15T15:07:28.730Z,22.00
2023-03-15T15:10:13.201Z,18.83
2023-03-15T15:13:06.025Z,20.60
2023-03-15T15:15:56.072Z,22.60
2023-03-15T15:18:40.628Z,20.43
2023-03-15T15:21:28.468Z,18.87
2023-03-15T15:24:15.691Z,20.93
2023-03-15T15:26:59.471Z,22.23
2023-03-15T15:29:43.336Z,24.43
2023-03-15T15:32:28.645Z,21.20
2023-03-15T15:35:14.073Z,20.07
2023-03-15T15:37:58.537Z,25.63
2023-03-15T15:40:43.143Z,23.37
2023-03-15T15:43:27.964Z,31.60
2023-03-15T15:46:13.655Z,25.23
2023-03-15T15:48:59.211Z,24.63
2023-03-15T15:51:46.110Z,32.57
2023-03-15T15:54:31.776Z,22.07
2023-03-15T15:57:16.565Z,25.13
2023-03-15T16:00:01.505Z,26.43
2023-03-15T16:02:47.426Z,21.80
2023-03-15T16:05:34.323Z,25.57
2023-03-15T16:08:23.675Z,32.73
2023-03-15T16:11:08.986Z,25.77
2023-03-15T16:13:55.081Z,30.10
2023-03-15T16:16:39.256Z,29.77
2023-03-15T16:19:23.588Z,24.23
2023-03-15T16:22:09.431Z,35.23
2023-03-15T16:24:56.055Z,28.77
2023-03-15T16:27:40.059Z,33.83
2023-03-15T16:30:26.437Z,30.27
2023-03-15T16:33:16.373Z,26.13
2023-03-15T16:36:01.948Z,37.93
2023-03-15T16:38:47.673Z,37.90
2023-03-15T16:41:31.770Z,43.67
2023-03-15T16:44:17.400Z,39.47
2023-03-15T16:47:01.542Z,35.30
2023-03-15T16:49:45.809Z,32.83
2023-03-15T16:52:30.401Z,35.37
2023-03-15T16:55:18.538Z,49.63
2023-03-15T16:58:04.510Z,43.63
2023-03-15T17:00:48.788Z,42.80
2023-03-15T17:03:34.000Z,43.17
2023-03-15T17:06:23.322Z,44.87
2023-03-15T17:09:10.639Z,40.23
2023-03-15T17:11:56.406Z,41.93
2023-03-15T17:14:41.284Z,42.17
2023-03-15T17:17:26.988Z,48.13
2023-03-15T17:20:14.245Z,86.50
2023-03-15T17:23:03.961Z,82.30
2023-03-15T17:25:49.626Z,54.83
2023-03-15T17:28:35.129Z,52.07
2023-03-15T17:31:25.742Z,60.53
2023-03-15T17:34:09.958Z,69.70
2023-03-15T17:36:56.113Z,78.13
2023-03-15T17:39:40.291Z,85.37
2023-03-15T17:42:24.406Z,68.10
2023-03-15T17:45:17.525Z,52.17
2023-03-15T17:48:02.174Z,45.80
2023-03-15T17:50:46.170Z,46.03
2023-03-15T17:53:29.899Z,63.70
2023-03-15T17:56:14.130Z,61.00
2023-03-15T17:58:58.466Z,78.10
2023-03-15T18:01:45.813Z,47.83
2023-03-15T18:04:29.638Z,47.90
2023-03-15T18:07:13.434Z,43.87
2023-03-15T18:09:57.457Z,52.83
2023-03-15T18:12:43.228Z,55.80
2023-03-15T18:15:27.064Z,57.50
2023-03-15T18:18:12.367Z,56.30
2023-03-15T18:20:56.249Z,56.27
2023-03-15T18:23:40.164Z,40.40
2023-03-15T18:26:24.403Z,38.13
2023-03-15T18:29:08.221Z,33.37
2023-03-15T18:31:52.502Z,35.57
2023-03-15T18:34:38.087Z,46.37
2023-03-15T18:37:21.996Z,41.00
2023-03-15T18:40:06.980Z,35.60
2023-03-15T18:42:51.038Z,42.43
2023-03-15T18:45:36.762Z,40.20
2023-03-15T18:48:34.111Z,36.33
2023-03-15T18:51:28.317Z,34.07
2023-03-15T18:54:12.211Z,35.03
2023-03-15T18:56:56.125Z,32.57
2023-03-15T18:59:40.148Z,23.00
2023-03-15T19:02:24.134Z,33.60
2023-03-15T19:05:09.092Z,30.47
2023-03-15T19:07:54.547Z,31.93
2023-03-15T19:10:38.361Z,28.93
2023-03-15T19:13:22.296Z,30.77
2023-03-15T19:16:06.827Z,33.73
2023-03-15T19:18:51.712Z,49.53
2023-03-15T19:21:35.666Z,38.50
2023-03-15T19:24:20.916Z,37.83
2023-03-15T19:27:05.118Z,25.03
2023-03-15T19:29:49.020Z,26.60
2023-03-15T19:32:33.097Z,26.33
2023-03-15T19:35:17.896Z,33.40
2023-03-15T19:38:02.708Z,36.43
2023-03-15T19:40:48.225Z,35.13
2023-03-15T19:43:32.811Z,31.10
2023-03-15T19:46:18.076Z,29.00
2023-03-15T19:49:02.466Z,27.37
2023-03-15T19:51:46.461Z,27.27
2023-03-15T19:54:34.098Z,45.43
2023-03-15T19:57:19.453Z,26.80
2023-03-15T20:00:03.743Z,32.47
2023-03-15T20:02:49.117Z,32.60
2023-03-15T20:05:33.079Z,30.67
2023-03-15T20:08:17.258Z,30.47
2023-03-15T20:11:01.421Z,29.10
2023-03-15T20:13:47.646Z,34.33
2023-03-15T20:16:32.251Z,38.80
2023-03-15T20:19:16.406Z,34.60
2023-03-15T20:22:00.341Z,33.07
2023-03-15T20:24:44.461Z,31.57
2023-03-15T20:27:28.660Z,33.27
2023-03-15T20:30:16.387Z,28.97
2023-03-15T20:33:00.579Z,26.67
2023-03-15T20:35:44.592Z,28.60
2023-03-15T20:38:29.420Z,28.70
2023-03-15T20:41:14.479Z,29.60
2023-03-15T20:43:58.477Z,27.97
2023-03-15T20:46:44.109Z,27.93
2023-03-15T20:49:29.347Z,26.90
2023-03-15T20:52:13.522Z,27.27
2023-03-15T20:54:57.461Z,29.90
2023-03-15T20:57:42.818Z,24.27
2023-03-15T21:00:30.172Z,30.23
2023-03-15T21:03:17.670Z,31.80
2023-03-15T21:06:02.195Z,33.00
2023-03-15T21:08:46.096Z,26.97
2023-03-15T21:11:30.581Z,28.50
2023-03-15T21:14:14.844Z,23.43
2023-03-15T21:17:00.153Z,24.87
2023-03-15T21:19:45.379Z,23.00
2023-03-15T21:22:29.261Z,30.47
2023-03-15T21:25:14.534Z,21.97
2023-03-15T21:27:58.364Z,27.40
2023-03-15T21:30:42.519Z,28.73
2023-03-15T21:33:27.993Z,29.67
2023-03-15T21:36:13.230Z,33.67
2023-03-15T21:38:57.095Z,21.77
2023-03-15T21:41:41.294Z,20.27
2023-03-15T21:44:25.368Z,24.20
2023-03-15T21:47:09.152Z,20.73
2023-03-15T21:49:54.142Z,24.57
2023-03-15T21:52:39.486Z,21.40
2023-03-15T21:55:23.350Z,21.07
2023-03-15T21:58:07.099Z,20.53
2023-03-15T22:00:51.378Z,26.63
2023-03-15T22:03:36.391Z,27.00
2023-03-15T22:06:20.314Z,25.70
2023-03-15T22:09:05.641Z,26.13
2023-03-15T22:11:49.887Z,22.73
2023-03-15T22:14:33.599Z,26.73
2023-03-15T22:17:17.479Z,24.83
2023-03-15T22:20:01.279Z,21.57
2023-03-15T22:22:47.301Z,27.90
2023-03-15T22:25:32.566Z,25.43
2023-03-15T22:28:16.696Z,28.07
2023-03-15T22:31:01.746Z,34.20
2023-03-15T22:33:46.218Z,22.50
2023-03-15T22:36:30.189Z,26.53
2023-03-15T22:39:14.434Z,25.67
2023-03-15T22:41:59.638Z,31.63
2023-03-15T22:44:43.368Z,32.80
2023-03-15T22:47:27.286Z,29.53
2023-03-15T22:50:12.570Z,27.37
2023-03-15T22:52:56.689Z,28.17
2023-03-15T22:55:40.522Z,23.03
2023-03-15T22:58:26.179Z,25.73
2023-03-15T23:01:10.405Z,23.73
2023-03-15T23:03:54.199Z,27.37
2023-03-15T23:06:38.060Z,24.87
2023-03-15T23:09:22.633Z,27.63
2023-03-15T23:12:07.057Z,28.13
2023-03-15T23:14:52.506Z,26.47
2023-03-15T23:17:36.347Z,22.33
2023-03-15T23:20:20.760Z,31.00
2023-03-15T23:23:04.491Z,34.63
2023-03-15T23:25:48.468Z,30.03
2023-03-15T23:28:32.265Z,27.23
2023-03-15T23:31:17.459Z,29.47
2023-03-15T23:34:01.348Z,26.13
2023-03-15T23:36:45.519Z,22.60
2023-03-15T23:39:29.823Z,26.97
2023-03-15T23:42:13.998Z,26.67
2023-03-15T23:44:57.800Z,29.50
2023-03-15T23:47:43.339Z,24.47
2023-03-15T23:50:28.292Z,25.20
2023-03-15T23:53:12.424Z,24.07
2023-03-15T23:55:56.470Z,27.30
2023-03-15T23:58:40.792Z,30.63
